createdAt,value
2023-05-06T00:02:00.022Z,15.38
2023-05-06T00:04:26.929Z,15.52
2023-05-06T00:06:54.325Z,15.46
2023-05-06T00:09:21.287Z,15.33
2023-05-06T00:11:47.995Z,15.47
2023-05-06T00:14:14.605Z,15.55
2023-05-06T00:16:41.303Z,15.65
2023-05-06T00:19:07.981Z,15.68
2023-05-06T00:21:34.623Z,15.70
2023-05-06T00:24:01.284Z,15.83
2023-05-06T00:26:27.913Z,15.70
2023-05-06T00:28:54.500Z,15.44
2023-05-06T00:31:21.162Z,15.63
2023-05-06T00:33:47.793Z,15.67
2023-05-06T00:36:14.696Z,15.80
2023-05-06T00:38:41.367Z,15.90
2023-05-06T00:41:08.249Z,16.00
2023-05-06T00:43:34.828Z,15.93
2023-05-06T00:46:01.744Z,15.93
2023-05-06T00:48:28.846Z,15.95
2023-05-06T00:50:55.756Z,16.07
2023-05-06T00:53:22.512Z,16.14
2023-05-06T00:55:51.315Z,16.18
2023-05-06T00:58:20.297Z,15.96
2023-05-06T01:00:47.354Z,15.98
2023-05-06T01:03:14.182Z,16.07
2023-05-06T01:05:55.834Z,16.08
2023-05-06T01:08:35.137Z,16.02
2023-05-06T01:11:14.010Z,16.13
2023-05-06T01:13:47.540Z,16.14
2023-05-06T01:16:18.032Z,16.19
2023-05-06T01:18:45.038Z,16.25
2023-05-06T01:21:13.524Z,16.22
2023-05-06T01:24:09.202Z,16.30
2023-05-06T01:26:35.929Z,16.20
2023-05-06T01:29:03.979Z,16.28
2023-05-06T01:31:38.908Z,16.31
2023-05-06T01:34:56.996Z,16.39
2023-05-06T01:37:32.382Z,16.13
2023-05-06T01:40:00.824Z,16.26
2023-05-06T01:42:27.678Z,16.29
2023-05-06T01:44:56.992Z,16.08
2023-05-06T01:47:24.690Z,16.12
2023-05-06T01:49:52.009Z,16.17
2023-05-06T01:52:18.636Z,16.20
2023-05-06T01:54:45.292Z,16.21
2023-05-06T01:57:12.064Z,16.26
2023-05-06T01:59:38.730Z,16.27
2023-05-06T02:02:06.708Z,16.27
2023-05-06T02:04:33.429Z,16.30
2023-05-06T02:07:00.022Z,16.28
2023-05-06T02:09:26.669Z,16.27
2023-05-06T02:11:53.280Z,16.26
2023-05-06T02:14:19.885Z,16.05
2023-05-06T02:16:46.543Z,16.07
2023-05-06T02:19:13.154Z,16.09
2023-05-06T02:21:39.751Z,16.12
2023-05-06T02:24:06.994Z,16.10
2023-05-06T02:26:33.662Z,16.10
2023-05-06T02:29:00.486Z,15.42
2023-05-06T02:31:27.280Z,15.38
2023-05-06T02:33:53.884Z,15.67
2023-05-06T02:36:20.513Z,15.78
2023-05-06T02:38:47.097Z,15.57
2023-05-06T02:41:13.736Z,15.60
2023-05-06T02:43:40.422Z,15.52
2023-05-06T02:46:07.120Z,15.59
2023-05-06T02:48:33.839Z,15.57
2023-05-06T02:51:00.486Z,15.69
2023-05-06T02:53:27.069Z,15.73
2023-05-06T02:55:53.691Z,15.56
2023-05-06T02:58:20.387Z,15.63
2023-05-06T03:00:47.042Z,15.22
2023-05-06T03:03:13.648Z,15.41
2023-05-06T03:05:40.271Z,15.42
2023-05-06T03:08:06.958Z,15.53
2023-05-06T03:10:33.717Z,15.54
2023-05-06T03:13:00.327Z,15.58
2023-05-06T03:15:27.307Z,15.64
2023-05-06T03:17:53.975Z,15.57
2023-05-06T03:20:21.468Z,15.46
2023-05-06T03:22:48.178Z,15.41
2023-05-06T03:25:15.272Z,15.41
2023-05-06T03:27:41.921Z,15.31
2023-05-06T03:30:09.223Z,15.05
2023-05-06T03:32:35.993Z,15.15
2023-05-06T03:35:02.635Z,15.22
2023-05-06T03:37:30.597Z,15.16
2023-05-06T03:39:57.218Z,14.80
2023-05-06T03:42:23.891Z,15.03
2023-05-06T03:44:50.487Z,15.10
2023-05-06T03:47:17.335Z,14.77
2023-05-06T03:49:43.960Z,14.54
2023-05-06T03:52:10.610Z,14.85
2023-05-06T03:54:37.228Z,14.96
2023-05-06T03:57:03.980Z,14.99
2023-05-06T03:59:30.664Z,14.98
2023-05-06T04:01:57.296Z,14.95
2023-05-06T04:04:23.944Z,14.81
2023-05-06T04:06:50.748Z,14.89
2023-05-06T04:09:17.348Z,14.95
2023-05-06T04:11:43.976Z,14.86
2023-05-06T04:14:10.570Z,14.49
2023-05-06T04:16:37.308Z,14.64
2023-05-06T04:19:06.362Z,14.83
2023-05-06T04:21:33.309Z,14.83
2023-05-06T04:23:59.949Z,14.80
2023-05-06T04:26:26.551Z,14.80
2023-05-06T04:28:53.225Z,14.88
2023-05-06T04:31:19.934Z,14.76
2023-05-06T04:33:46.631Z,14.73
2023-05-06T04:36:13.664Z,14.88
2023-05-06T04:38:40.530Z,14.88
2023-05-06T04:41:07.332Z,14.91
2023-05-06T04:43:33.956Z,14.85
2023-05-06T04:46:01.609Z,14.97
2023-05-06T04:48:28.225Z,15.10
2023-05-06T04:50:54.870Z,15.16
2023-05-06T04:53:21.507Z,15.21
2023-05-06T04:55:48.145Z,15.24
2023-05-06T04:58:14.909Z,15.25
2023-05-06T05:00:41.546Z,15.35
2023-05-06T05:03:08.291Z,15.34
2023-05-06T05:05:35.112Z,15.36
2023-05-06T05:08:01.773Z,15.43
2023-05-06T05:10:28.394Z,15.35
2023-05-06T05:12:55.048Z,15.34
2023-05-06T05:15:21.796Z,15.35
2023-05-06T05:17:48.632Z,15.43
2023-05-06T05:20:15.267Z,15.48
2023-05-06T05:22:42.050Z,15.30
2023-05-06T05:25:08.853Z,15.35
2023-05-06T05:27:35.619Z,15.36
2023-05-06T05:30:02.223Z,15.46
2023-05-06T05:32:29.004Z,15.54
2023-05-06T05:34:55.671Z,15.65
2023-05-06T05:37:22.369Z,15.64
2023-05-06T05:39:49.022Z,15.79
2023-05-06T05:42:15.637Z,15.95
2023-05-06T05:44:42.431Z,15.91
2023-05-06T05:47:09.021Z,15.92
2023-05-06T05:49:36.210Z,15.89
2023-05-06T05:52:02.922Z,15.93
2023-05-06T05:54:29.608Z,16.03
2023-05-06T05:56:56.274Z,15.98
2023-05-06T05:59:22.923Z,16.02
2023-05-06T06:01:49.517Z,16.04
2023-05-06T06:04:16.433Z,16.15
2023-05-06T06:06:43.135Z,16.17
2023-05-06T06:09:10.279Z,16.16
2023-05-06T06:11:36.949Z,16.19
2023-05-06T06:14:03.673Z,16.18
2023-05-06T06:16:30.326Z,16.38
2023-05-06T06:18:57.086Z,16.44
2023-05-06T06:21:23.687Z,16.49
2023-05-06T06:23:50.309Z,16.39
2023-05-06T06:26:17.029Z,16.60
2023-05-06T06:28:44.845Z,16.66
2023-05-06T06:31:11.855Z,16.66
2023-05-06T06:33:38.533Z,16.67
2023-05-06T06:36:05.632Z,16.46
2023-05-06T06:38:32.377Z,16.54
2023-05-06T06:40:58.992Z,16.60
2023-05-06T06:43:25.647Z,16.60
2023-05-06T06:45:52.441Z,16.34
2023-05-06T06:48:19.862Z,16.63
2023-05-06T06:50:46.625Z,16.65
2023-05-06T06:53:13.325Z,16.74
2023-05-06T06:55:43.931Z,16.84
2023-05-06T06:58:10.623Z,16.84
2023-05-06T07:00:37.276Z,16.91
2023-05-06T07:03:04.059Z,16.85
2023-05-06T07:05:31.019Z,16.43
2023-05-06T07:07:57.634Z,16.77
2023-05-06T07:10:24.294Z,17.01
2023-05-06T07:12:50.982Z,17.16
2023-05-06T07:15:17.627Z,17.18
2023-05-06T07:17:44.275Z,17.15
2023-05-06T07:20:11.627Z,17.33
2023-05-06T07:22:39.148Z,17.18
2023-05-06T07:25:06.428Z,17.00
2023-05-06T07:27:33.078Z,17.11
2023-05-06T07:30:00.429Z,17.19
2023-05-06T07:32:27.028Z,17.21
2023-05-06T07:34:53.962Z,17.45
2023-05-06T07:37:20.677Z,17.60
2023-05-06T07:39:47.447Z,17.95
2023-05-06T07:42:14.103Z,18.15
2023-05-06T07:44:40.760Z,18.35
2023-05-06T07:47:07.499Z,18.40
2023-05-06T07:49:35.283Z,18.52
2023-05-06T07:52:02.197Z,18.41
2023-05-06T07:54:28.948Z,18.27
2023-05-06T07:56:55.983Z,18.01
2023-05-06T07:59:23.593Z,17.77
2023-05-06T08:01:50.293Z,17.87
2023-05-06T08:04:17.383Z,17.48
2023-05-06T08:06:44.056Z,17.88
2023-05-06T08:09:12.908Z,18.01
2023-05-06T08:11:43.596Z,18.09
2023-05-06T08:14:10.228Z,18.15
2023-05-06T08:16:36.918Z,18.26
2023-05-06T08:19:03.575Z,18.44
2023-05-06T08:21:30.304Z,18.66
2023-05-06T08:23:56.908Z,18.85
2023-05-06T08:26:23.602Z,19.02
2023-05-06T08:28:50.343Z,18.97
2023-05-06T08:31:16.981Z,18.87
2023-05-06T08:33:43.630Z,19.05
2023-05-06T08:36:10.468Z,19.27
2023-05-06T08:38:37.093Z,19.40
2023-05-06T08:41:09.678Z,19.67
2023-05-06T08:43:42.236Z,19.78
2023-05-06T08:46:09.490Z,19.80
2023-05-06T08:48:37.601Z,19.86
2023-05-06T08:51:04.533Z,19.88
2023-05-06T08:53:35.930Z,20.10
2023-05-06T08:56:08.838Z,20.03
2023-05-06T08:58:37.648Z,20.13
2023-05-06T09:01:04.978Z,20.08
2023-05-06T09:03:31.858Z,20.35
2023-05-06T09:05:58.680Z,19.84
2023-05-06T09:08:25.358Z,19.62
2023-05-06T09:10:51.954Z,19.45
2023-05-06T09:13:22.258Z,19.40
2023-05-06T09:15:49.235Z,19.87
2023-05-06T09:18:16.790Z,20.40
2023-05-06T09:20:48.383Z,20.49
2023-05-06T09:23:17.694Z,20.53
2023-05-06T09:25:46.406Z,20.39
2023-05-06T09:28:13.762Z,19.80
2023-05-06T09:30:45.594Z,19.98
2023-05-06T09:33:12.641Z,20.03
2023-05-06T09:35:43.718Z,20.24
2023-05-06T09:38:10.686Z,20.26
2023-05-06T09:40:38.539Z,20.27
2023-05-06T09:43:05.879Z,20.08
2023-05-06T09:45:33.231Z,20.57
2023-05-06T09:48:01.110Z,20.89
2023-05-06T09:50:28.813Z,21.31
2023-05-06T09:52:56.321Z,21.33
2023-05-06T09:55:26.759Z,20.83
2023-05-06T09:57:54.792Z,20.52
2023-05-06T10:00:28.033Z,21.20
2023-05-06T10:02:55.403Z,21.55
2023-05-06T10:05:24.729Z,21.83
2023-05-06T10:07:53.410Z,21.42
2023-05-06T10:10:20.757Z,21.39
2023-05-06T10:12:48.925Z,20.95
2023-05-06T10:15:15.821Z,21.29
2023-05-06T10:17:48.074Z,21.47
2023-05-06T10:20:16.486Z,21.24
2023-05-06T10:23:08.117Z,20.50
2023-05-06T10:25:40.312Z,19.95
2023-05-06T10:28:20.889Z,19.66
2023-05-06T10:30:58.712Z,20.14
2023-05-06T10:33:26.421Z,20.65
2023-05-06T10:35:56.883Z,21.13
2023-05-06T10:38:34.552Z,21.77
2023-05-06T10:41:01.726Z,22.17
2023-05-06T10:43:33.314Z,22.29
2023-05-06T10:46:16.006Z,22.38
2023-05-06T10:49:04.519Z,22.08
2023-05-06T10:51:38.325Z,21.99
2023-05-06T10:54:09.603Z,21.60
2023-05-06T10:56:37.952Z,21.61
2023-05-06T10:59:12.453Z,21.82
2023-05-06T11:01:43.881Z,22.06
2023-05-06T11:04:19.750Z,22.39
2023-05-06T11:06:48.852Z,22.37
2023-05-06T11:09:23.924Z,22.63
2023-05-06T11:12:04.180Z,22.68
2023-05-06T11:14:35.929Z,22.12
2023-05-06T11:17:07.736Z,22.38
2023-05-06T11:19:36.117Z,22.32
2023-05-06T11:22:04.407Z,22.39
2023-05-06T11:24:39.192Z,22.54
2023-05-06T11:27:06.105Z,22.83
2023-05-06T11:29:32.743Z,22.85
2023-05-06T11:31:59.569Z,22.86
2023-05-06T11:34:31.087Z,22.85
2023-05-06T11:37:08.457Z,23.24
2023-05-06T11:39:40.296Z,23.17
2023-05-06T11:42:08.792Z,22.79
2023-05-06T11:44:37.723Z,22.91
2023-05-06T11:47:06.232Z,22.89
2023-05-06T11:49:41.071Z,22.55
2023-05-06T11:52:12.261Z,22.53
2023-05-06T11:54:40.815Z,22.53
2023-05-06T11:57:07.724Z,22.55
2023-05-06T11:59:39.600Z,22.48
2023-05-06T12:02:07.805Z,22.48
2023-05-06T12:04:39.845Z,22.65
2023-05-06T12:07:07.702Z,22.63
2023-05-06T12:09:36.113Z,22.30
2023-05-06T12:12:04.874Z,22.53
2023-05-06T12:14:32.213Z,22.24
2023-05-06T12:16:59.227Z,21.97
2023-05-06T12:19:26.694Z,21.83
2023-05-06T12:21:53.356Z,21.87
2023-05-06T12:24:29.968Z,21.89
2023-05-06T12:26:56.647Z,21.67
2023-05-06T12:29:23.291Z,21.51
2023-05-06T12:31:50.031Z,21.43
2023-05-06T12:34:18.598Z,21.36
2023-05-06T12:36:47.353Z,21.62
2023-05-06T12:39:14.449Z,21.66
2023-05-06T12:41:46.101Z,21.81
2023-05-06T12:44:38.282Z,21.77
2023-05-06T12:47:09.932Z,21.76
2023-05-06T12:49:54.516Z,22.02
2023-05-06T12:52:23.434Z,22.05
2023-05-06T12:54:51.838Z,22.12
2023-05-06T12:57:18.905Z,22.19
2023-05-06T12:59:46.082Z,21.77
2023-05-06T13:02:13.700Z,21.95
2023-05-06T13:04:40.995Z,21.84
2023-05-06T13:07:07.808Z,21.63
2023-05-06T13:09:34.771Z,21.51
2023-05-06T13:12:02.522Z,21.79
2023-05-06T13:14:29.139Z,21.88
2023-05-06T13:16:56.057Z,21.54
2023-05-06T13:19:32.450Z,21.97
2023-05-06T13:22:00.940Z,22.56
2023-05-06T13:24:28.168Z,22.57
2023-05-06T13:26:56.426Z,23.11
2023-05-06T13:29:23.868Z,23.52
2023-05-06T13:31:51.065Z,23.43
2023-05-06T13:34:18.147Z,23.81
2023-05-06T13:36:44.817Z,24.27
2023-05-06T13:39:11.588Z,24.49
2023-05-06T13:41:38.240Z,24.64
2023-05-06T13:44:06.299Z,24.25
2023-05-06T13:46:33.026Z,22.92
2023-05-06T13:48:59.683Z,22.99
2023-05-06T13:51:32.719Z,23.52
2023-05-06T13:53:59.320Z,23.45
2023-05-06T13:56:26.052Z,23.16
2023-05-06T13:58:53.362Z,23.32
2023-05-06T14:01:24.281Z,23.42
2023-05-06T14:03:51.068Z,23.54
2023-05-06T14:06:17.697Z,23.80
2023-05-06T14:08:45.326Z,23.96
2023-05-06T14:11:12.169Z,24.05
2023-05-06T14:13:39.771Z,23.80
2023-05-06T14:16:07.071Z,23.67
2023-05-06T14:18:34.277Z,23.82
2023-05-06T14:21:01.019Z,22.61
2023-05-06T14:23:27.692Z,22.18
2023-05-06T14:25:54.318Z,22.41
2023-05-06T14:28:20.989Z,22.43
2023-05-06T14:30:47.679Z,22.37
2023-05-06T14:33:14.304Z,22.44
2023-05-06T14:35:42.427Z,22.37
2023-05-06T14:38:10.655Z,22.29
2023-05-06T14:40:38.881Z,22.30
2023-05-06T14:43:07.491Z,22.48
2023-05-06T14:45:34.258Z,22.79
2023-05-06T14:48:01.039Z,22.75
2023-05-06T14:50:27.810Z,22.57
2023-05-06T14:52:54.449Z,22.74
2023-05-06T14:55:21.253Z,22.54
2023-05-06T14:57:48.074Z,22.12
2023-05-06T15:00:15.174Z,21.84
2023-05-06T15:02:42.114Z,21.32
2023-05-06T15:05:10.561Z,21.12
2023-05-06T15:07:37.810Z,21.12
2023-05-06T15:10:05.033Z,21.40
2023-05-06T15:12:31.697Z,21.57
2023-05-06T15:14:58.292Z,21.76
2023-05-06T15:17:25.084Z,21.69
2023-05-06T15:19:51.726Z,22.10
2023-05-06T15:22:18.446Z,22.32
2023-05-06T15:24:45.447Z,22.23
2023-05-06T15:27:12.044Z,22.07
2023-05-06T15:29:39.418Z,22.43
2023-05-06T15:32:06.250Z,22.66
2023-05-06T15:34:33.196Z,22.01
2023-05-06T15:37:01.956Z,21.17
2023-05-06T15:39:28.702Z,21.04
2023-05-06T15:41:58.199Z,20.77
2023-05-06T15:46:53.248Z,20.77
2023-05-06T15:51:50.692Z,21.48
2023-05-06T15:54:20.050Z,21.56
2023-05-06T15:56:47.059Z,21.30
2023-05-06T15:59:13.688Z,21.24
2023-05-06T16:04:11.238Z,20.54
2023-05-06T16:06:37.993Z,20.48
2023-05-06T16:09:04.711Z,20.41
2023-05-06T16:11:31.304Z,20.76
2023-05-06T16:13:57.975Z,21.14
2023-05-06T16:16:24.606Z,21.50
2023-05-06T16:18:51.285Z,21.66
2023-05-06T16:21:17.871Z,21.81
2023-05-06T16:23:44.497Z,21.86
2023-05-06T16:26:11.214Z,22.11
2023-05-06T16:28:40.047Z,22.29
2023-05-06T16:31:07.082Z,22.37
2023-05-06T16:33:33.753Z,22.37
2023-05-06T16:36:00.409Z,22.46
2023-05-06T16:38:27.056Z,22.48
2023-05-06T16:40:53.770Z,22.34
2023-05-06T16:43:20.621Z,22.14
2023-05-06T16:45:47.279Z,22.38
2023-05-06T16:48:15.049Z,22.46
2023-05-06T16:50:41.914Z,22.60
2023-05-06T16:53:09.020Z,22.75
2023-05-06T16:55:35.944Z,22.55
2023-05-06T16:58:03.729Z,22.54
2023-05-06T17:00:30.581Z,22.62
2023-05-06T17:02:57.493Z,22.75
2023-05-06T17:05:24.419Z,22.62
2023-05-06T17:07:51.175Z,22.41
2023-05-06T17:10:17.854Z,22.09
2023-05-06T17:12:44.874Z,22.50
2023-05-06T17:15:11.787Z,22.43
2023-05-06T17:17:40.210Z,22.58
2023-05-06T17:20:07.847Z,22.60
2023-05-06T17:22:34.513Z,22.68
2023-05-06T17:25:01.233Z,22.61
2023-05-06T17:27:27.888Z,22.72
2023-05-06T17:29:54.563Z,22.63
2023-05-06T17:32:21.247Z,22.64
2023-05-06T17:34:47.912Z,22.82
2023-05-06T17:37:14.517Z,22.71
2023-05-06T17:39:41.192Z,22.83
2023-05-06T17:42:08.469Z,22.84
2023-05-06T17:44:35.899Z,22.89
2023-05-06T17:47:02.567Z,22.85
2023-05-06T17:49:29.250Z,22.83
2023-05-06T17:51:57.297Z,22.70
2023-05-06T17:54:25.441Z,22.76
2023-05-06T17:56:53.058Z,22.80
2023-05-06T17:59:20.237Z,22.72
2023-05-06T18:01:47.455Z,22.61
2023-05-06T18:04:14.600Z,22.54
2023-05-06T18:06:42.817Z,22.56
2023-05-06T18:09:10.425Z,22.43
2023-05-06T18:11:38.664Z,22.40
2023-05-06T18:14:06.013Z,22.44
2023-05-06T18:16:32.897Z,22.34
2023-05-06T18:19:02.772Z,22.30
2023-05-06T18:21:29.493Z,22.27
2023-05-06T18:24:05.673Z,22.19
2023-05-06T18:26:45.427Z,22.15
2023-05-06T18:29:13.074Z,22.05
2023-05-06T18:31:39.802Z,22.03
2023-05-06T18:34:06.486Z,22.01
2023-05-06T18:36:35.084Z,21.92
2023-05-06T18:39:02.404Z,21.82
2023-05-06T18:41:29.040Z,21.75
2023-05-06T18:43:55.694Z,21.73
2023-05-06T18:46:22.862Z,21.58
2023-05-06T18:48:49.501Z,21.56
2023-05-06T18:51:17.395Z,21.17
2023-05-06T18:53:45.028Z,21.28
2023-05-06T18:56:11.997Z,21.14
2023-05-06T18:58:40.618Z,20.77
2023-05-06T19:01:09.145Z,20.56
2023-05-06T19:03:36.428Z,20.55
2023-05-06T19:06:04.705Z,20.68
2023-05-06T19:08:31.743Z,20.73
2023-05-06T19:11:02.782Z,20.73
2023-05-06T19:13:29.562Z,20.67
2023-05-06T19:15:57.157Z,20.60
2023-05-06T19:18:23.814Z,20.53
2023-05-06T19:20:50.571Z,20.15
2023-05-06T19:23:17.250Z,20.29
2023-05-06T19:25:43.890Z,20.24
2023-05-06T19:28:10.661Z,20.04
2023-05-06T19:30:37.487Z,20.03
2023-05-06T19:33:04.643Z,20.05
2023-05-06T19:35:31.529Z,20.10
2023-05-06T19:37:58.766Z,20.03
2023-05-06T19:40:25.804Z,19.90
2023-05-06T19:42:53.959Z,19.85
2023-05-06T19:45:20.680Z,19.82
2023-05-06T19:47:47.476Z,19.81
2023-05-06T19:50:14.231Z,19.79
2023-05-06T19:52:40.932Z,19.67
2023-05-06T19:55:07.976Z,19.70
2023-05-06T19:57:34.713Z,19.67
2023-05-06T20:00:05.986Z,19.66
2023-05-06T20:02:33.090Z,19.63
2023-05-06T20:05:00.663Z,19.58
2023-05-06T20:07:27.618Z,19.43
2023-05-06T20:09:55.999Z,19.37
2023-05-06T20:12:23.496Z,19.31
2023-05-06T20:14:50.280Z,19.34
2023-05-06T20:17:17.132Z,19.34
2023-05-06T20:19:48.095Z,19.36
2023-05-06T20:22:14.728Z,19.32
2023-05-06T20:24:45.031Z,19.29
2023-05-06T20:27:11.700Z,19.17
2023-05-06T20:29:38.352Z,19.10
2023-05-06T20:32:05.455Z,18.99
2023-05-06T20:34:32.195Z,18.99
2023-05-06T20:36:59.871Z,18.96
2023-05-06T20:39:26.534Z,18.87
2023-05-06T20:41:53.214Z,18.60
2023-05-06T20:44:19.880Z,18.65
2023-05-06T20:46:46.506Z,18.72
2023-05-06T20:49:13.170Z,18.73
2023-05-06T20:51:40.156Z,18.72
2023-05-06T20:54:07.116Z,18.72
2023-05-06T20:56:33.762Z,18.68
2023-05-06T20:59:00.641Z,18.62
2023-05-06T21:01:27.423Z,18.52
2023-05-06T21:03:54.107Z,18.44
2023-05-06T21:06:20.908Z,18.32
2023-05-06T21:08:47.585Z,18.34
2023-05-06T21:11:14.398Z,18.33
2023-05-06T21:13:41.781Z,18.38
2023-05-06T21:16:08.745Z,18.32
2023-05-06T21:18:35.898Z,18.30
2023-05-06T21:21:02.998Z,18.32
2023-05-06T21:23:29.591Z,18.25
2023-05-06T21:25:56.279Z,18.12
2023-05-06T21:28:23.106Z,17.92
2023-05-06T21:30:49.845Z,17.98
2023-05-06T21:33:16.729Z,17.97
2023-05-06T21:35:43.384Z,18.03
2023-05-06T21:38:10.114Z,18.03
2023-05-06T21:40:36.812Z,18.01
2023-05-06T21:43:03.535Z,17.98
2023-05-06T21:45:30.278Z,17.99
2023-05-06T21:47:56.989Z,17.94
2023-05-06T21:50:23.730Z,17.88
2023-05-06T21:52:50.385Z,17.70
2023-05-06T21:55:17.081Z,17.64
2023-05-06T21:57:44.684Z,17.52
2023-05-06T22:00:13.548Z,17.56
2023-05-06T22:02:40.657Z,17.57
2023-05-06T22:05:08.421Z,17.62
2023-05-06T22:07:35.973Z,17.14
2023-05-06T22:10:03.548Z,17.34
2023-05-06T22:12:31.493Z,17.41
2023-05-06T22:14:58.154Z,17.48
2023-05-06T22:17:24.805Z,17.45
2023-05-06T22:19:51.654Z,17.36
2023-05-06T22:22:18.775Z,17.27
2023-05-06T22:24:45.602Z,17.32
2023-05-06T22:27:12.250Z,17.31
2023-05-06T22:29:38.914Z,17.15
2023-05-06T22:32:06.386Z,17.21
2023-05-06T22:34:33.087Z,17.22
2023-05-06T22:37:01.028Z,17.19
2023-05-06T22:39:27.933Z,17.08
2023-05-06T22:41:54.536Z,17.10
2023-05-06T22:44:21.447Z,17.02
2023-05-06T22:46:48.064Z,17.01
2023-05-06T22:49:15.998Z,17.02
2023-05-06T22:51:42.818Z,16.97
2023-05-06T22:54:09.438Z,16.98
2023-05-06T22:56:36.130Z,16.93
2023-05-06T22:59:02.914Z,16.89
2023-05-06T23:01:32.340Z,16.83
2023-05-06T23:03:59.787Z,16.74
2023-05-06T23:06:31.107Z,16.61
2023-05-06T23:08:58.110Z,16.59
2023-05-06T23:11:25.122Z,16.55
2023-05-06T23:13:51.747Z,16.55
2023-05-06T23:16:18.428Z,16.56
2023-05-06T23:18:45.936Z,16.42
2023-05-06T23:21:12.701Z,16.19
2023-05-06T23:23:39.387Z,16.16
2023-05-06T23:26:06.055Z,16.18
2023-05-06T23:28:32.762Z,16.32
2023-05-06T23:30:59.462Z,16.28
2023-05-06T23:33:26.543Z,16.37
2023-05-06T23:35:53.326Z,16.05
2023-05-06T23:38:19.974Z,15.94
2023-05-06T23:40:46.626Z,16.01
2023-05-06T23:43:13.245Z,16.06
2023-05-06T23:45:39.863Z,16.01
2023-05-06T23:48:06.946Z,15.98
2023-05-06T23:50:33.606Z,16.05
2023-05-06T23:53:00.518Z,16.03
2023-05-06T23:55:27.814Z,16.01
2023-05-06T23:57:55.844Z,16.02
